createdAt,value
2018-09-14T00:01:02.326Z,98214.96
2018-09-14T00:03:30.996Z,98213.39
2018-09-14T00:05:59.913Z,98215.98
2018-09-14T00:08:30.323Z,98212.46
2018-09-14T00:10:59.145Z,98208.88
2018-09-14T00:13:27.921Z,98202.06
2018-09-14T00:15:56.578Z,98211.55
2018-09-14T00:18:26.592Z,98208.31
2018-09-14T00:20:55.311Z,98216.21
2018-09-14T00:23:24.309Z,98212.46
2018-09-14T00:25:53.002Z,98214.05
2018-09-14T00:28:21.741Z,98214.30
2018-09-14T00:30:50.622Z,98206.69
2018-09-14T00:33:19.310Z,98210.55
2018-09-14T00:35:48.346Z,98209.19
2018-09-14T00:38:17.077Z,98205.13
2018-09-14T00:40:46.367Z,98201.24
2018-09-14T00:43:15.349Z,98207.06
2018-09-14T00:45:44.296Z,98211.27
2018-09-14T00:48:13.510Z,98208.66
2018-09-14T00:50:42.669Z,98206.04
2018-09-14T00:53:11.362Z,98211.04
2018-09-14T00:55:40.509Z,98207.15
2018-09-14T00:58:09.216Z,98202.37
2018-09-14T01:00:38.178Z,98200.22
2018-09-14T01:03:07.026Z,98204.45
2018-09-14T01:05:35.759Z,98206.16
2018-09-14T01:08:04.425Z,98206.55
2018-09-14T01:10:33.175Z,98195.78
2018-09-14T01:13:02.243Z,98200.88
2018-09-14T01:15:30.993Z,98204.50
2018-09-14T01:17:59.630Z,98203.40
2018-09-14T01:20:28.300Z,98200.13
2018-09-14T01:22:56.942Z,98202.17
2018-09-14T01:25:25.882Z,98206.84
2018-09-14T01:27:54.649Z,98206.27
2018-09-14T01:30:23.417Z,98205.81
2018-09-14T01:32:52.374Z,98206.58
2018-09-14T01:35:26.359Z,98203.54
2018-09-14T01:37:55.450Z,98200.56
2018-09-14T01:40:24.194Z,98203.25
2018-09-14T01:42:52.915Z,98200.07
2018-09-14T01:45:21.589Z,98192.92
2018-09-14T01:47:50.246Z,98197.77
2018-09-14T01:50:18.995Z,98197.77
2018-09-14T01:52:47.742Z,98197.58
2018-09-14T01:55:16.534Z,98194.39
2018-09-14T01:57:45.218Z,98200.64
2018-09-14T02:00:13.985Z,98198.03
2018-09-14T02:02:42.721Z,98193.97
2018-09-14T02:05:11.350Z,98195.41
2018-09-14T02:07:40.173Z,98197.45
2018-09-14T02:10:08.897Z,98198.03
2018-09-14T02:12:37.641Z,98193.34
2018-09-14T02:15:06.711Z,98187.74
2018-09-14T02:17:35.466Z,98190.84
2018-09-14T02:20:04.257Z,98186.86
2018-09-14T02:22:32.906Z,98187.28
2018-09-14T02:25:01.545Z,98185.24
2018-09-14T02:27:30.305Z,98181.38
2018-09-14T02:29:59.090Z,98185.24
2018-09-14T02:32:27.889Z,98184.79
2018-09-14T02:34:56.646Z,98186.16
2018-09-14T02:37:25.327Z,98183.88
2018-09-14T02:39:53.986Z,98188.91
2018-09-14T02:42:22.618Z,98192.13
2018-09-14T02:44:51.640Z,98186.27
2018-09-14T02:47:20.377Z,98178.30
2018-09-14T02:49:49.021Z,98190.79
2018-09-14T02:52:17.677Z,98189.06
2018-09-14T02:54:46.510Z,98193.72
2018-09-14T02:57:15.205Z,98191.07
2018-09-14T02:59:43.914Z,98189.36
2018-09-14T03:02:12.609Z,98189.82
2018-09-14T03:04:41.310Z,98185.44
2018-09-14T03:07:09.986Z,98196.26
2018-09-14T03:09:38.777Z,98195.05
2018-09-14T03:12:07.521Z,98195.80
2018-09-14T03:14:36.167Z,98203.45
2018-09-14T03:17:05.046Z,98200.19
2018-09-14T03:19:34.550Z,98204.66
2018-09-14T03:22:03.373Z,98195.88
2018-09-14T03:24:32.020Z,98195.20
2018-09-14T03:27:00.673Z,98198.34
2018-09-14T03:29:29.417Z,98194.66
2018-09-14T03:31:58.081Z,98200.79
2018-09-14T03:34:27.237Z,98193.52
2018-09-14T03:36:56.006Z,98198.89
2018-09-14T03:39:24.958Z,98201.84
2018-09-14T03:41:53.659Z,98194.67
2018-09-14T03:44:22.327Z,98200.25
2018-09-14T03:46:51.474Z,98200.75
2018-09-14T03:49:20.213Z,98204.84
2018-09-14T03:51:48.924Z,98201.48
2018-09-14T03:54:17.728Z,98205.17
2018-09-14T03:56:46.500Z,98203.85
2018-09-14T03:59:15.197Z,98207.27
2018-09-14T04:01:43.974Z,98205.80
2018-09-14T04:04:12.609Z,98207.91
2018-09-14T04:06:41.302Z,98211.69
2018-09-14T04:09:11.263Z,98209.50
2018-09-14T04:11:40.227Z,98210.66
2018-09-14T04:14:09.148Z,98209.84
2018-09-14T04:16:37.816Z,98208.89
2018-09-14T04:19:06.643Z,98215.64
2018-09-14T04:21:36.718Z,98209.58
2018-09-14T04:24:05.606Z,98214.60
2018-09-14T04:26:34.321Z,98208.77
2018-09-14T04:29:03.009Z,98208.60
2018-09-14T04:31:31.700Z,98212.57
2018-09-14T04:34:00.490Z,98212.62
2018-09-14T04:36:29.309Z,98214.39
2018-09-14T04:38:58.097Z,98218.48
2018-09-14T04:41:26.939Z,98218.69
2018-09-14T04:43:55.651Z,98224.25
2018-09-14T04:46:24.286Z,98222.66
2018-09-14T04:48:53.090Z,98229.23
2018-09-14T04:51:21.978Z,98229.95
2018-09-14T04:53:50.595Z,98225.64
2018-09-14T04:56:19.517Z,98228.64
2018-09-14T04:58:48.262Z,98230.41
2018-09-14T05:01:16.999Z,98227.51
2018-09-14T05:03:45.632Z,98234.02
2018-09-14T05:06:14.287Z,98241.27
2018-09-14T05:08:43.025Z,98245.11
2018-09-14T05:11:11.802Z,98248.37
2018-09-14T05:13:40.531Z,98245.77
2018-09-14T05:16:09.249Z,98249.44
2018-09-14T05:18:38.051Z,98257.88
2018-09-14T05:21:06.894Z,98260.50
2018-09-14T05:23:35.671Z,98252.70
2018-09-14T05:26:04.467Z,98254.83
2018-09-14T05:28:33.170Z,98257.48
2018-09-14T05:31:01.846Z,98267.20
2018-09-14T05:33:30.741Z,98266.23
2018-09-14T05:35:59.424Z,98269.19
2018-09-14T05:38:28.247Z,98267.20
2018-09-14T05:40:56.914Z,98267.03
2018-09-14T05:43:25.642Z,98268.33
2018-09-14T05:45:54.600Z,98275.77
2018-09-14T05:48:23.266Z,98274.17
2018-09-14T05:50:52.138Z,98275.30
2018-09-14T05:53:20.861Z,98275.04
2018-09-14T05:55:49.550Z,98281.15
2018-09-14T05:58:18.220Z,98276.73
2018-09-14T06:00:46.893Z,98277.36
2018-09-14T06:03:15.695Z,98277.59
2018-09-14T06:05:44.797Z,98284.05
2018-09-14T06:08:13.522Z,98289.42
2018-09-14T06:10:42.177Z,98291.30
2018-09-14T06:13:10.944Z,98293.08
2018-09-14T06:15:42.660Z,98298.97
2018-09-14T06:18:11.481Z,98292.28
2018-09-14T06:20:40.149Z,98298.02
2018-09-14T06:23:09.174Z,98299.25
2018-09-14T06:25:37.763Z,98308.41
2018-09-14T06:28:06.530Z,98303.56
2018-09-14T06:30:35.337Z,98309.81
2018-09-14T06:33:04.098Z,98305.16
2018-09-14T06:35:32.794Z,98310.66
2018-09-14T06:38:01.483Z,98312.48
2018-09-14T06:40:30.205Z,98301.25
2018-09-14T06:42:59.298Z,98299.47
2018-09-14T06:45:28.106Z,98300.66
2018-09-14T06:47:56.837Z,98301.16
2018-09-14T06:50:25.546Z,98307.57
2018-09-14T06:52:54.205Z,98311.44
2018-09-14T06:55:23.031Z,98312.25
2018-09-14T06:57:51.778Z,98308.92
2018-09-14T07:00:20.730Z,98314.66
2018-09-14T07:02:49.284Z,98317.22
2018-09-14T07:05:17.989Z,98312.72
2018-09-14T07:07:46.772Z,98316.91
2018-09-14T07:10:15.645Z,98325.14
2018-09-14T07:12:44.353Z,98325.17
2018-09-14T07:15:13.091Z,98337.75
2018-09-14T07:17:41.829Z,98335.14
2018-09-14T07:20:10.814Z,98333.41
2018-09-14T07:22:39.682Z,98340.28
2018-09-14T07:25:09.326Z,98336.12
2018-09-14T07:27:38.176Z,98340.70
2018-09-14T07:30:07.229Z,98343.48
2018-09-14T07:32:35.934Z,98350.25
2018-09-14T07:35:04.662Z,98338.63
2018-09-14T07:37:33.302Z,98345.94
2018-09-14T07:40:02.083Z,98351.62
2018-09-14T07:42:30.960Z,98347.00
2018-09-14T07:44:59.946Z,98354.30
2018-09-14T07:47:28.607Z,98359.26
2018-09-14T07:49:57.261Z,98355.73
2018-09-14T07:52:26.001Z,98353.17
2018-09-14T07:54:54.763Z,98356.63
2018-09-14T07:57:23.534Z,98356.69
2018-09-14T07:59:52.206Z,98355.08
2018-09-14T08:02:20.883Z,98350.58
2018-09-14T08:04:49.562Z,98355.63
2018-09-14T08:07:19.034Z,98354.42
2018-09-14T08:09:47.782Z,98351.77
2018-09-14T08:12:16.467Z,98358.06
2018-09-14T08:14:45.183Z,98360.75
2018-09-14T08:17:13.893Z,98355.40
2018-09-14T08:19:42.638Z,98362.09
2018-09-14T08:22:11.779Z,98361.89
2018-09-14T08:24:40.783Z,98371.30
2018-09-14T08:27:09.593Z,98371.99
2018-09-14T08:29:38.657Z,98370.54
2018-09-14T08:32:07.509Z,98372.91
2018-09-14T08:34:36.344Z,98372.69
2018-09-14T08:37:05.057Z,98371.79
2018-09-14T08:39:33.922Z,98381.02
2018-09-14T08:42:02.588Z,98375.75
2018-09-14T08:44:31.367Z,98382.51
2018-09-14T08:47:00.085Z,98379.88
2018-09-14T08:49:28.849Z,98376.45
2018-09-14T08:51:57.853Z,98378.61
2018-09-14T08:54:26.666Z,98387.61
2018-09-14T08:56:55.520Z,98379.98
2018-09-14T08:59:24.209Z,98382.97
2018-09-14T09:01:53.124Z,98383.85
2018-09-14T09:04:21.915Z,98392.16
2018-09-14T09:06:50.585Z,98387.03
2018-09-14T09:09:20.353Z,98391.63
2018-09-14T09:11:49.085Z,98388.41
2018-09-14T09:14:18.197Z,98382.00
2018-09-14T09:16:46.843Z,98389.61
2018-09-14T09:19:15.551Z,98391.14
2018-09-14T09:21:44.359Z,98383.47
2018-09-14T09:24:13.494Z,98390.55
2018-09-14T09:26:42.319Z,98394.50
2018-09-14T09:29:11.002Z,98390.63
2018-09-14T09:31:39.753Z,98375.23
2018-09-14T09:34:08.421Z,98379.08
2018-09-14T09:36:37.701Z,98375.62
2018-09-14T09:39:10.085Z,98373.36
2018-09-14T09:41:39.385Z,98370.89
2018-09-14T09:44:08.325Z,98368.48
2018-09-14T09:46:37.269Z,98364.35
2018-09-14T09:49:06.206Z,98354.17
2018-09-14T09:51:35.033Z,98358.70
2018-09-14T09:54:03.842Z,98364.52
2018-09-14T09:56:32.689Z,98361.34
2018-09-14T09:59:01.495Z,98364.62
2018-09-14T10:02:33.161Z,98361.81
2018-09-14T10:05:07.156Z,98370.50
2018-09-14T10:07:35.885Z,98371.79
2018-09-14T10:10:04.874Z,98376.39
2018-09-14T10:12:33.632Z,98375.45
2018-09-14T10:15:02.538Z,98380.34
2018-09-14T10:17:31.350Z,98380.41
2018-09-14T10:20:00.098Z,98384.87
2018-09-14T10:22:28.839Z,98378.66
2018-09-14T10:24:57.567Z,98377.27
2018-09-14T10:27:26.209Z,98375.22
2018-09-14T10:29:55.066Z,98378.22
2018-09-14T10:32:23.859Z,98380.05
2018-09-14T10:34:52.671Z,98376.13
2018-09-14T10:37:21.672Z,98368.20
2018-09-14T10:39:50.506Z,98373.64
2018-09-14T10:42:19.248Z,98371.47
2018-09-14T10:44:48.013Z,98378.29
2018-09-14T10:47:16.837Z,98369.95
2018-09-14T10:49:45.765Z,98365.72
2018-09-14T10:52:14.698Z,98362.97
2018-09-14T10:54:43.494Z,98353.36
2018-09-14T10:57:12.483Z,98355.53
2018-09-14T10:59:41.690Z,98360.13
2018-09-14T11:02:10.580Z,98357.06
2018-09-14T11:04:39.609Z,98356.62
2018-09-14T11:07:08.407Z,98357.72
2018-09-14T11:09:37.132Z,98362.63
2018-09-14T11:12:05.938Z,98366.04
2018-09-14T11:14:34.718Z,98368.48
2018-09-14T11:17:03.521Z,98368.58
2018-09-14T11:19:32.298Z,98364.86
2018-09-14T11:22:01.044Z,98359.59
2018-09-14T11:24:29.910Z,98357.58
2018-09-14T11:26:58.673Z,98354.81
2018-09-14T11:29:27.400Z,98369.08
2018-09-14T11:31:56.259Z,98360.72
2018-09-14T11:34:24.987Z,98360.03
2018-09-14T11:36:53.809Z,98353.28
2018-09-14T11:39:22.504Z,98352.27
2018-09-14T11:41:51.137Z,98355.73
2018-09-14T11:44:19.902Z,98353.34
2018-09-14T11:46:48.769Z,98356.76
2018-09-14T11:49:17.578Z,98353.16
2018-09-14T11:51:46.498Z,98353.64
2018-09-14T11:54:15.507Z,98352.59
2018-09-14T11:56:44.223Z,98356.17
2018-09-14T11:59:12.905Z,98350.58
2018-09-14T12:01:41.825Z,98349.45
2018-09-14T12:04:10.671Z,98343.77
2018-09-14T12:06:39.407Z,98337.17
2018-09-14T12:09:10.624Z,98331.64
2018-09-14T12:11:40.045Z,98335.83
2018-09-14T12:14:09.231Z,98326.13
2018-09-14T12:16:38.115Z,98329.15
2018-09-14T12:19:07.109Z,98321.28
2018-09-14T12:21:35.774Z,98319.32
2018-09-14T12:24:04.459Z,98312.44
2018-09-14T12:26:33.299Z,98308.79
2018-09-14T12:29:02.069Z,98302.84
2018-09-14T12:31:30.726Z,98297.11
2018-09-14T12:33:59.470Z,98291.66
2018-09-14T12:36:28.418Z,98286.39
2018-09-14T12:38:57.352Z,98286.23
2018-09-14T12:41:26.126Z,98282.45
2018-09-14T12:43:54.841Z,98274.87
2018-09-14T12:46:23.718Z,98266.23
2018-09-14T12:48:52.365Z,98268.62
2018-09-14T12:51:21.123Z,98261.97
2018-09-14T12:53:49.892Z,98274.49
2018-09-14T12:56:18.713Z,98274.84
2018-09-14T12:58:47.432Z,98274.01
2018-09-14T13:01:16.974Z,98273.21
2018-09-14T13:03:45.742Z,98274.88
2018-09-14T13:06:14.450Z,98269.67
2018-09-14T13:08:43.161Z,98268.80
2018-09-14T13:11:11.955Z,98267.30
2018-09-14T13:13:40.770Z,98271.87
2018-09-14T13:16:09.801Z,98270.48
2018-09-14T13:18:38.497Z,98268.66
2018-09-14T13:21:07.292Z,98265.29
2018-09-14T13:23:35.974Z,98268.00
2018-09-14T13:26:04.739Z,98260.69
2018-09-14T13:28:33.539Z,98252.77
2018-09-14T13:31:02.204Z,98251.78
2018-09-14T13:33:31.128Z,98242.81
2018-09-14T13:36:00.051Z,98229.39
2018-09-14T13:38:28.765Z,98228.20
2018-09-14T13:40:57.598Z,98226.56
2018-09-14T13:43:26.360Z,98219.37
2018-09-14T13:45:55.142Z,98220.83
2018-09-14T13:48:23.875Z,98214.50
2018-09-14T13:50:52.634Z,98211.27
2018-09-14T13:53:21.443Z,98220.91
2018-09-14T13:55:50.119Z,98225.61
2018-09-14T13:58:18.742Z,98226.36
2018-09-14T14:00:47.557Z,98227.41
2018-09-14T14:03:16.257Z,98221.23
2018-09-14T14:05:44.973Z,98222.00
2018-09-14T14:08:13.662Z,98227.86
2018-09-14T14:10:42.662Z,98231.56
2018-09-14T14:13:11.311Z,98229.47
2018-09-14T14:15:40.151Z,98225.53
2018-09-14T14:18:09.173Z,98232.81
2018-09-14T14:20:38.280Z,98218.69
2018-09-14T14:23:07.569Z,98222.13
2018-09-14T14:25:36.351Z,98222.13
2018-09-14T14:28:04.977Z,98224.61
2018-09-14T14:30:34.223Z,98222.52
2018-09-14T14:33:03.114Z,98219.88
2018-09-14T14:35:31.869Z,98219.77
2018-09-14T14:38:00.522Z,98218.76
2018-09-14T14:40:29.178Z,98221.86
2018-09-14T14:42:57.921Z,98219.84
2018-09-14T14:45:26.690Z,98218.64
2018-09-14T14:47:55.430Z,98218.45
2018-09-14T14:50:24.153Z,98220.16
2018-09-14T14:52:52.866Z,98216.20
2018-09-14T14:55:21.558Z,98210.11
2018-09-14T14:57:50.299Z,98213.41
2018-09-14T15:00:19.058Z,98209.60
2018-09-14T15:02:48.037Z,98208.02
2018-09-14T15:05:17.036Z,98206.03
2018-09-14T15:07:45.924Z,98206.23
2018-09-14T15:10:14.585Z,98204.92
2018-09-14T15:12:43.421Z,98205.28
2018-09-14T15:15:12.243Z,98205.52
2018-09-14T15:17:41.142Z,98202.53
2018-09-14T15:20:09.857Z,98200.89
2018-09-14T15:22:38.640Z,98201.28
2018-09-14T15:25:07.571Z,98193.50
2018-09-14T15:27:36.257Z,98186.66
2018-09-14T15:30:05.035Z,98187.60
2018-09-14T15:32:33.727Z,98191.14
2018-09-14T15:35:02.491Z,98172.90
2018-09-14T15:37:31.354Z,98179.25
2018-09-14T15:40:00.114Z,98185.24
2018-09-14T15:42:30.126Z,98187.16
2018-09-14T15:44:59.097Z,98186.64
2018-09-14T15:47:27.773Z,98185.66
2018-09-14T15:49:56.453Z,98193.59
2018-09-14T15:52:25.558Z,98186.33
2018-09-14T15:54:54.716Z,98183.06
2018-09-14T15:57:23.557Z,98182.32
2018-09-14T15:59:52.325Z,98186.45
2018-09-14T16:02:20.985Z,98180.91
2018-09-14T16:04:49.840Z,98182.95
2018-09-14T16:07:18.514Z,98190.05
2018-09-14T16:09:47.463Z,98189.94
2018-09-14T16:12:16.165Z,98186.33
2018-09-14T16:14:44.842Z,98187.91
2018-09-14T16:17:13.642Z,98186.57
2018-09-14T16:19:42.316Z,98186.95
2018-09-14T16:22:11.142Z,98194.01
2018-09-14T16:24:39.798Z,98201.25
2018-09-14T16:27:08.609Z,98192.73
2018-09-14T16:29:37.369Z,98196.92
2018-09-14T16:32:06.189Z,98195.39
2018-09-14T16:34:35.299Z,98197.75
2018-09-14T16:37:04.100Z,98196.80
2018-09-14T16:39:32.845Z,98201.13
2018-09-14T16:42:01.499Z,98196.23
2018-09-14T16:44:30.214Z,98196.52
2018-09-14T16:46:59.041Z,98199.50
2018-09-14T16:49:27.723Z,98206.50
2018-09-14T16:51:56.929Z,98200.91
2018-09-14T16:54:25.918Z,98199.92
2018-09-14T16:56:54.575Z,98205.62
2018-09-14T16:59:23.416Z,98202.73
2018-09-14T17:01:52.159Z,98199.84
2018-09-14T17:04:20.817Z,98201.66
2018-09-14T17:06:49.868Z,98205.14
2018-09-14T17:09:18.685Z,98199.80
2018-09-14T17:11:47.746Z,98206.30
2018-09-14T17:14:16.514Z,98198.56
2018-09-14T17:16:45.193Z,98202.18
2018-09-14T17:19:14.117Z,98202.81
2018-09-14T17:21:42.772Z,98208.31
2018-09-14T17:24:11.494Z,98200.24
2018-09-14T17:26:40.222Z,98211.13
2018-09-14T17:29:09.239Z,98208.39
2018-09-14T17:31:38.048Z,98210.55
2018-09-14T17:34:06.730Z,98207.95
2018-09-14T17:36:35.405Z,98219.15
2018-09-14T17:39:05.118Z,98217.47
2018-09-14T17:41:33.794Z,98219.42
2018-09-14T17:44:02.656Z,98227.28
2018-09-14T17:46:31.363Z,98222.44
2018-09-14T17:49:01.003Z,98225.82
2018-09-14T17:51:29.672Z,98225.91
2018-09-14T17:53:58.364Z,98225.22
2018-09-14T17:56:27.290Z,98225.34
2018-09-14T17:58:55.971Z,98230.12
2018-09-14T18:01:24.865Z,98231.61
2018-09-14T18:03:53.610Z,98229.36
2018-09-14T18:06:22.314Z,98231.98
2018-09-14T18:08:51.022Z,98232.50
2018-09-14T18:11:19.671Z,98235.05
2018-09-14T18:13:48.701Z,98243.11
2018-09-14T18:16:17.392Z,98238.35
2018-09-14T18:18:46.149Z,98244.69
2018-09-14T18:21:14.857Z,98248.09
2018-09-14T18:23:43.507Z,98251.48
2018-09-14T18:26:12.345Z,98251.81
2018-09-14T18:28:41.095Z,98256.45
2018-09-14T18:31:09.934Z,98261.99
2018-09-14T18:33:38.605Z,98262.16
2018-09-14T18:36:07.546Z,98263.97
2018-09-14T18:38:36.340Z,98263.63
2018-09-14T18:41:05.296Z,98264.79
2018-09-14T18:43:33.968Z,98260.09
2018-09-14T18:46:02.658Z,98266.43
2018-09-14T18:48:31.354Z,98264.84
2018-09-14T18:51:00.234Z,98272.97
2018-09-14T18:53:29.194Z,98276.24
2018-09-14T18:55:58.110Z,98274.28
2018-09-14T18:58:26.923Z,98273.48
2018-09-14T19:00:55.686Z,98272.02
2018-09-14T19:03:24.528Z,98269.01
2018-09-14T19:05:53.288Z,98272.91
2018-09-14T19:08:22.471Z,98277.87
2018-09-14T19:10:51.192Z,98273.58
2018-09-14T19:13:19.923Z,98277.45
2018-09-14T19:15:48.822Z,98277.59
2018-09-14T19:18:17.509Z,98283.83
2018-09-14T19:20:46.247Z,98285.03
2018-09-14T19:23:14.989Z,98284.52
2018-09-14T19:25:43.649Z,98291.92
2018-09-14T19:28:12.481Z,98292.08
2018-09-14T19:30:41.362Z,98293.09
2018-09-14T19:33:10.186Z,98289.45
2018-09-14T19:35:38.952Z,98291.61
2018-09-14T19:38:07.676Z,98287.43
2018-09-14T19:40:36.426Z,98285.84
2018-09-14T19:43:05.102Z,98284.47
2018-09-14T19:45:33.782Z,98293.39
2018-09-14T19:48:02.497Z,98288.84
2018-09-14T19:50:31.247Z,98290.04
2018-09-14T19:52:59.946Z,98288.67
2018-09-14T19:55:28.626Z,98292.88
2018-09-14T19:57:57.326Z,98289.06
2018-09-14T20:00:26.179Z,98288.92
2018-09-14T20:02:54.888Z,98292.17
2018-09-14T20:05:24.020Z,98288.85
2018-09-14T20:07:52.794Z,98287.16
2018-09-14T20:10:21.473Z,98289.86
2018-09-14T20:12:50.158Z,98290.98
2018-09-14T20:15:18.967Z,98301.80
2018-09-14T20:17:47.662Z,98298.59
2018-09-14T20:20:16.357Z,98303.60
2018-09-14T20:22:45.034Z,98307.23
2018-09-14T20:25:13.722Z,98303.92
2018-09-14T20:27:42.386Z,98305.29
2018-09-14T20:30:11.094Z,98297.78
2018-09-14T20:32:40.082Z,98297.28
2018-09-14T20:35:09.018Z,98296.57
2018-09-14T20:37:37.960Z,98299.55
2018-09-14T20:40:06.772Z,98298.66
2018-09-14T20:42:35.653Z,98306.69
2018-09-14T20:45:04.535Z,98305.47
2018-09-14T20:47:33.743Z,98306.80
2018-09-14T20:50:02.728Z,98305.72
2018-09-14T20:52:31.502Z,98305.50
2018-09-14T20:55:00.319Z,98312.69
2018-09-14T20:57:29.097Z,98308.80
2018-09-14T20:59:57.877Z,98303.55
2018-09-14T21:02:27.018Z,98303.27
2018-09-14T21:04:56.086Z,98306.61
2018-09-14T21:07:24.802Z,98308.83
2018-09-14T21:09:53.855Z,98306.15
2018-09-14T21:12:22.531Z,98303.84
2018-09-14T21:14:51.353Z,98300.89
2018-09-14T21:17:20.074Z,98308.80
2018-09-14T21:19:48.902Z,98306.20
2018-09-14T21:22:17.788Z,98303.02
2018-09-14T21:24:47.393Z,98303.45
2018-09-14T21:27:16.191Z,98299.06
2018-09-14T21:29:44.987Z,98298.02
2018-09-14T21:32:14.001Z,98298.14
2018-09-14T21:34:42.756Z,98299.17
2018-09-14T21:37:11.489Z,98294.80
2018-09-14T21:39:40.312Z,98293.21
2018-09-14T21:42:09.019Z,98293.34
2018-09-14T21:44:37.950Z,98290.03
2018-09-14T21:47:06.921Z,98288.41
2018-09-14T21:49:35.579Z,98288.56
2018-09-14T21:52:04.302Z,98288.95
2018-09-14T21:54:33.057Z,98293.50
2018-09-14T21:57:01.775Z,98295.44
2018-09-14T21:59:30.582Z,98292.48
2018-09-14T22:01:59.258Z,98293.41
2018-09-14T22:04:28.039Z,98294.23
2018-09-14T22:06:56.910Z,98286.84
2018-09-14T22:09:25.836Z,98290.80
2018-09-14T22:11:54.487Z,98297.76
2018-09-14T22:14:23.172Z,98294.80
2018-09-14T22:16:51.895Z,98306.99
2018-09-14T22:19:20.545Z,98297.55
2018-09-14T22:21:49.927Z,98303.23
2018-09-14T22:24:18.781Z,98302.08
2018-09-14T22:26:47.557Z,98305.62
2018-09-14T22:29:16.248Z,98305.73
2018-09-14T22:31:44.923Z,98305.03
2018-09-14T22:34:13.930Z,98302.98
2018-09-14T22:36:42.828Z,98304.47
2018-09-14T22:39:13.017Z,98300.90
2018-09-14T22:41:41.702Z,98307.94
2018-09-14T22:44:11.203Z,98309.78
2018-09-14T22:46:40.033Z,98308.40
2018-09-14T22:49:08.793Z,98313.39
2018-09-14T22:51:37.819Z,98311.55
2018-09-14T22:54:06.566Z,98315.08
2018-09-14T22:56:35.223Z,98314.14
2018-09-14T22:59:04.186Z,98319.48
2018-09-14T23:01:32.988Z,98311.05
2018-09-14T23:04:01.710Z,98311.94
2018-09-14T23:06:30.387Z,98310.17
2018-09-14T23:08:59.095Z,98306.42
2018-09-14T23:11:28.046Z,98308.01
2018-09-14T23:13:56.801Z,98315.93
2018-09-14T23:16:25.578Z,98320.94
2018-09-14T23:18:54.241Z,98324.34
2018-09-14T23:21:22.895Z,98330.67
2018-09-14T23:23:51.861Z,98333.17
2018-09-14T23:26:22.759Z,98331.13
2018-09-14T23:28:51.481Z,98335.74
2018-09-14T23:31:20.170Z,98339.20
2018-09-14T23:33:49.643Z,98337.82
2018-09-14T23:36:18.753Z,98336.20
2018-09-14T23:38:47.472Z,98337.10
2018-09-14T23:41:16.561Z,98340.86
2018-09-14T23:43:45.215Z,98341.64
2018-09-14T23:46:13.861Z,98346.42
2018-09-14T23:48:42.621Z,98348.17
2018-09-14T23:51:11.390Z,98348.28
2018-09-14T23:53:40.308Z,98347.19
2018-09-14T23:56:09.077Z,98346.84
2018-09-14T23:58:37.826Z,98350.52
